sensor_id;sensor_type;location;lat;lon;timestamp;P1;durP1;ratioP1;P2;durP2;ratioP2
19605;SDS011;9950;50.168;8.210;2023-01-09T00:00:11;16.30;;;10.85;;
19605;SDS011;9950;50.168;8.210;2023-01-09T00:02:39;17.08;;;10.30;;
19605;SDS011;9950;50.168;8.210;2023-01-09T00:05:10;14.93;;;10.60;;
19605;SDS011;9950;50.168;8.210;2023-01-09T00:07:37;14.02;;;10.10;;
19605;SDS011;9950;50.168;8.210;2023-01-09T00:10:05;14.30;;;9.50;;
19605;SDS011;9950;50.168;8.210;2023-01-09T00:12:32;14.75;;;9.27;;
19605;SDS011;9950;50.168;8.210;2023-01-09T00:15:00;13.25;;;8.80;;
19605;SDS011;9950;50.168;8.210;2023-01-09T00:17:27;11.90;;;8.52;;
19605;SDS011;9950;50.168;8.210;2023-01-09T00:19:54;12.45;;;8.52;;
19605;SDS011;9950;50.168;8.210;2023-01-09T00:22:23;13.38;;;7.53;;
19605;SDS011;9950;50.168;8.210;2023-01-09T00:24:51;13.52;;;8.43;;
19605;SDS011;9950;50.168;8.210;2023-01-09T00:27:18;11.38;;;8.02;;
19605;SDS011;9950;50.168;8.210;2023-01-09T00:29:45;11.73;;;7.93;;
19605;SDS011;9950;50.168;8.210;2023-01-09T00:32:13;11.65;;;8.48;;
19605;SDS011;9950;50.168;8.210;2023-01-09T00:34:40;8.30;;;5.25;;
19605;SDS011;9950;50.168;8.210;2023-01-09T00:37:08;8.45;;;6.00;;
19605;SDS011;9950;50.168;8.210;2023-01-09T00:39:38;9.55;;;6.43;;
19605;SDS011;9950;50.168;8.210;2023-01-09T00:42:06;8.65;;;5.88;;
19605;SDS011;9950;50.168;8.210;2023-01-09T00:44:34;9.32;;;6.60;;
19605;SDS011;9950;50.168;8.210;2023-01-09T00:47:04;10.93;;;7.38;;
19605;SDS011;9950;50.168;8.210;2023-01-09T00:49:35;10.20;;;7.45;;
19605;SDS011;9950;50.168;8.210;2023-01-09T00:52:03;8.00;;;5.43;;
19605;SDS011;9950;50.168;8.210;2023-01-09T00:54:32;7.90;;;5.15;;
19605;SDS011;9950;50.168;8.210;2023-01-09T00:57:01;7.90;;;5.03;;
19605;SDS011;9950;50.168;8.210;2023-01-09T00:59:28;7.85;;;5.43;;
19605;SDS011;9950;50.168;8.210;2023-01-09T01:01:55;6.55;;;4.70;;
19605;SDS011;9950;50.168;8.210;2023-01-09T01:04:22;5.45;;;3.88;;
19605;SDS011;9950;50.168;8.210;2023-01-09T01:07:07;3.63;;;2.80;;
19605;SDS011;9950;50.168;8.210;2023-01-09T01:09:51;2.80;;;1.85;;
19605;SDS011;9950;50.168;8.210;2023-01-09T01:12:20;2.95;;;2.20;;
19605;SDS011;9950;50.168;8.210;2023-01-09T01:14:47;2.08;;;1.63;;
19605;SDS011;9950;50.168;8.210;2023-01-09T01:17:14;2.35;;;1.70;;
19605;SDS011;9950;50.168;8.210;2023-01-09T01:19:41;2.08;;;1.40;;
19605;SDS011;9950;50.168;8.210;2023-01-09T01:22:09;2.78;;;1.33;;
19605;SDS011;9950;50.168;8.210;2023-01-09T01:24:36;2.08;;;1.65;;
19605;SDS011;9950;50.168;8.210;2023-01-09T01:27:03;2.97;;;1.10;;
19605;SDS011;9950;50.168;8.210;2023-01-09T01:29:31;1.17;;;0.95;;
19605;SDS011;9950;50.168;8.210;2023-01-09T01:31:59;0.75;;;0.70;;
19605;SDS011;9950;50.168;8.210;2023-01-09T01:34:27;1.63;;;0.70;;
19605;SDS011;9950;50.168;8.210;2023-01-09T01:36:54;0.80;;;0.57;;
19605;SDS011;9950;50.168;8.210;2023-01-09T01:39:21;0.47;;;0.47;;
19605;SDS011;9950;50.168;8.210;2023-01-09T01:41:48;0.40;;;0.40;;
19605;SDS011;9950;50.168;8.210;2023-01-09T01:47:03;0.45;;;0.43;;
19605;SDS011;9950;50.168;8.210;2023-01-09T01:49:30;0.40;;;0.40;;
19605;SDS011;9950;50.168;8.210;2023-01-09T01:51:57;2.63;;;0.47;;
19605;SDS011;9950;50.168;8.210;2023-01-09T01:54:25;0.40;;;0.40;;
19605;SDS011;9950;50.168;8.210;2023-01-09T01:56:55;0.30;;;0.30;;
19605;SDS011;9950;50.168;8.210;2023-01-09T01:59:25;1.85;;;0.60;;
19605;SDS011;9950;50.168;8.210;2023-01-09T02:01:53;1.33;;;0.80;;
19605;SDS011;9950;50.168;8.210;2023-01-09T02:04:21;1.42;;;0.90;;
19605;SDS011;9950;50.168;8.210;2023-01-09T02:06:49;2.30;;;0.95;;
19605;SDS011;9950;50.168;8.210;2023-01-09T02:09:17;1.70;;;0.90;;
19605;SDS011;9950;50.168;8.210;2023-01-09T02:11:47;1.88;;;1.02;;
19605;SDS011;9950;50.168;8.210;2023-01-09T02:14:16;2.17;;;0.90;;
19605;SDS011;9950;50.168;8.210;2023-01-09T02:16:46;1.77;;;0.75;;
19605;SDS011;9950;50.168;8.210;2023-01-09T02:19:26;0.88;;;0.70;;
19605;SDS011;9950;50.168;8.210;2023-01-09T02:21:59;1.15;;;0.60;;
19605;SDS011;9950;50.168;8.210;2023-01-09T02:24:35;1.20;;;0.90;;
19605;SDS011;9950;50.168;8.210;2023-01-09T02:27:18;0.60;;;0.50;;
19605;SDS011;9950;50.168;8.210;2023-01-09T02:32:39;0.63;;;0.40;;
19605;SDS011;9950;50.168;8.210;2023-01-09T02:35:14;0.88;;;0.50;;
19605;SDS011;9950;50.168;8.210;2023-01-09T02:37:44;0.80;;;0.40;;
19605;SDS011;9950;50.168;8.210;2023-01-09T02:40:14;0.30;;;0.30;;
19605;SDS011;9950;50.168;8.210;2023-01-09T02:42:42;0.38;;;0.30;;
19605;SDS011;9950;50.168;8.210;2023-01-09T02:45:11;1.33;;;0.43;;
19605;SDS011;9950;50.168;8.210;2023-01-09T02:47:40;0.43;;;0.43;;
19605;SDS011;9950;50.168;8.210;2023-01-09T02:50:09;0.95;;;0.40;;
19605;SDS011;9950;50.168;8.210;2023-01-09T02:52:42;0.40;;;0.40;;
19605;SDS011;9950;50.168;8.210;2023-01-09T02:55:16;0.38;;;0.38;;
19605;SDS011;9950;50.168;8.210;2023-01-09T02:57:51;2.15;;;0.40;;
19605;SDS011;9950;50.168;8.210;2023-01-09T03:00:24;0.98;;;0.40;;
19605;SDS011;9950;50.168;8.210;2023-01-09T03:02:57;0.40;;;0.40;;
19605;SDS011;9950;50.168;8.210;2023-01-09T03:05:28;1.65;;;0.40;;
19605;SDS011;9950;50.168;8.210;2023-01-09T03:07:58;0.40;;;0.40;;
19605;SDS011;9950;50.168;8.210;2023-01-09T03:10:28;0.43;;;0.43;;
19605;SDS011;9950;50.168;8.210;2023-01-09T03:12:58;1.75;;;0.40;;
19605;SDS011;9950;50.168;8.210;2023-01-09T03:15:28;0.47;;;0.43;;
19605;SDS011;9950;50.168;8.210;2023-01-09T03:17:58;0.85;;;0.70;;
19605;SDS011;9950;50.168;8.210;2023-01-09T03:20:26;0.75;;;0.60;;
19605;SDS011;9950;50.168;8.210;2023-01-09T03:22:54;0.52;;;0.50;;
19605;SDS011;9950;50.168;8.210;2023-01-09T03:25:22;1.67;;;0.57;;
19605;SDS011;9950;50.168;8.210;2023-01-09T03:27:49;0.63;;;0.63;;
19605;SDS011;9950;50.168;8.210;2023-01-09T03:30:18;0.60;;;0.50;;
19605;SDS011;9950;50.168;8.210;2023-01-09T03:32:45;0.60;;;0.50;;
19605;SDS011;9950;50.168;8.210;2023-01-09T03:35:14;0.85;;;0.50;;
19605;SDS011;9950;50.168;8.210;2023-01-09T03:37:41;0.40;;;0.40;;
19605;SDS011;9950;50.168;8.210;2023-01-09T03:40:09;4.10;;;0.52;;
19605;SDS011;9950;50.168;8.210;2023-01-09T03:42:36;0.38;;;0.38;;
19605;SDS011;9950;50.168;8.210;2023-01-09T03:45:03;0.75;;;0.60;;
19605;SDS011;9950;50.168;8.210;2023-01-09T03:47:31;1.08;;;0.65;;
19605;SDS011;9950;50.168;8.210;2023-01-09T03:49:58;0.50;;;0.50;;
19605;SDS011;9950;50.168;8.210;2023-01-09T03:52:27;0.70;;;0.70;;
19605;SDS011;9950;50.168;8.210;2023-01-09T03:54:54;0.80;;;0.70;;
19605;SDS011;9950;50.168;8.210;2023-01-09T03:57:21;0.70;;;0.70;;
19605;SDS011;9950;50.168;8.210;2023-01-09T03:59:49;0.60;;;0.60;;
19605;SDS011;9950;50.168;8.210;2023-01-09T04:02:16;0.50;;;0.50;;
19605;SDS011;9950;50.168;8.210;2023-01-09T04:04:44;1.55;;;0.60;;
19605;SDS011;9950;50.168;8.210;2023-01-09T04:07:11;0.75;;;0.68;;
19605;SDS011;9950;50.168;8.210;2023-01-09T04:09:39;1.15;;;0.47;;
19605;SDS011;9950;50.168;8.210;2023-01-09T04:12:06;1.80;;;0.50;;
19605;SDS011;9950;50.168;8.210;2023-01-09T04:14:33;0.57;;;0.50;;
19605;SDS011;9950;50.168;8.210;2023-01-09T04:17:01;0.60;;;0.60;;
19605;SDS011;9950;50.168;8.210;2023-01-09T04:19:28;0.50;;;0.40;;
19605;SDS011;9950;50.168;8.210;2023-01-09T04:21:55;0.63;;;0.50;;
19605;SDS011;9950;50.168;8.210;2023-01-09T04:24:22;1.77;;;0.50;;
19605;SDS011;9950;50.168;8.210;2023-01-09T04:26:52;0.93;;;0.60;;
19605;SDS011;9950;50.168;8.210;2023-01-09T04:29:20;0.73;;;0.60;;
19605;SDS011;9950;50.168;8.210;2023-01-09T04:31:47;0.40;;;0.40;;
19605;SDS011;9950;50.168;8.210;2023-01-09T04:34:14;1.85;;;0.50;;
19605;SDS011;9950;50.168;8.210;2023-01-09T04:36:42;2.20;;;0.60;;
19605;SDS011;9950;50.168;8.210;2023-01-09T04:39:09;1.30;;;0.60;;
19605;SDS011;9950;50.168;8.210;2023-01-09T04:41:36;0.60;;;0.60;;
19605;SDS011;9950;50.168;8.210;2023-01-09T04:44:17;2.83;;;0.75;;
19605;SDS011;9950;50.168;8.210;2023-01-09T04:46:44;0.57;;;0.50;;
19605;SDS011;9950;50.168;8.210;2023-01-09T04:49:11;0.95;;;0.60;;
19605;SDS011;9950;50.168;8.210;2023-01-09T04:51:39;0.73;;;0.40;;
19605;SDS011;9950;50.168;8.210;2023-01-09T04:54:06;0.35;;;0.35;;
19605;SDS011;9950;50.168;8.210;2023-01-09T04:56:33;2.00;;;0.70;;
19605;SDS011;9950;50.168;8.210;2023-01-09T04:59:01;1.75;;;0.52;;
19605;SDS011;9950;50.168;8.210;2023-01-09T05:01:29;0.95;;;0.40;;
19605;SDS011;9950;50.168;8.210;2023-01-09T05:03:56;2.85;;;0.95;;
19605;SDS011;9950;50.168;8.210;2023-01-09T05:06:23;1.75;;;0.80;;
19605;SDS011;9950;50.168;8.210;2023-01-09T05:08:51;1.38;;;0.90;;
19605;SDS011;9950;50.168;8.210;2023-01-09T05:11:18;1.92;;;0.90;;
19605;SDS011;9950;50.168;8.210;2023-01-09T05:13:45;2.00;;;0.80;;
19605;SDS011;9950;50.168;8.210;2023-01-09T05:16:12;2.75;;;0.80;;
19605;SDS011;9950;50.168;8.210;2023-01-09T05:18:41;4.53;;;0.93;;
19605;SDS011;9950;50.168;8.210;2023-01-09T05:21:08;1.00;;;0.90;;
19605;SDS011;9950;50.168;8.210;2023-01-09T05:23:35;0.93;;;0.70;;
19605;SDS011;9950;50.168;8.210;2023-01-09T05:26:02;1.30;;;0.80;;
19605;SDS011;9950;50.168;8.210;2023-01-09T05:28:30;1.33;;;0.70;;
19605;SDS011;9950;50.168;8.210;2023-01-09T05:30:57;2.53;;;0.90;;
19605;SDS011;9950;50.168;8.210;2023-01-09T05:33:24;1.35;;;0.88;;
19605;SDS011;9950;50.168;8.210;2023-01-09T05:35:53;3.60;;;0.93;;
19605;SDS011;9950;50.168;8.210;2023-01-09T05:38:20;1.75;;;0.90;;
19605;SDS011;9950;50.168;8.210;2023-01-09T05:40:47;2.55;;;1.23;;
19605;SDS011;9950;50.168;8.210;2023-01-09T05:43:15;2.70;;;1.25;;
19605;SDS011;9950;50.168;8.210;2023-01-09T05:45:42;2.88;;;1.30;;
19605;SDS011;9950;50.168;8.210;2023-01-09T05:48:09;4.25;;;1.15;;
19605;SDS011;9950;50.168;8.210;2023-01-09T05:50:37;2.55;;;0.80;;
19605;SDS011;9950;50.168;8.210;2023-01-09T05:53:05;2.40;;;1.27;;
19605;SDS011;9950;50.168;8.210;2023-01-09T05:55:33;3.90;;;1.05;;
19605;SDS011;9950;50.168;8.210;2023-01-09T05:58:00;1.48;;;1.00;;
19605;SDS011;9950;50.168;8.210;2023-01-09T06:00:27;5.13;;;1.20;;
19605;SDS011;9950;50.168;8.210;2023-01-09T06:02:55;2.05;;;0.82;;
19605;SDS011;9950;50.168;8.210;2023-01-09T06:05:22;3.20;;;0.90;;
19605;SDS011;9950;50.168;8.210;2023-01-09T06:07:49;2.35;;;0.90;;
19605;SDS011;9950;50.168;8.210;2023-01-09T06:10:18;4.15;;;0.90;;
19605;SDS011;9950;50.168;8.210;2023-01-09T06:12:45;3.40;;;0.95;;
19605;SDS011;9950;50.168;8.210;2023-01-09T06:15:13;1.45;;;1.10;;
19605;SDS011;9950;50.168;8.210;2023-01-09T06:17:41;4.47;;;0.90;;
19605;SDS011;9950;50.168;8.210;2023-01-09T06:20:11;1.70;;;0.90;;
19605;SDS011;9950;50.168;8.210;2023-01-09T06:22:38;2.05;;;1.00;;
19605;SDS011;9950;50.168;8.210;2023-01-09T06:25:08;2.90;;;1.02;;
19605;SDS011;9950;50.168;8.210;2023-01-09T06:27:39;3.40;;;0.90;;
19605;SDS011;9950;50.168;8.210;2023-01-09T06:30:07;2.38;;;1.30;;
19605;SDS011;9950;50.168;8.210;2023-01-09T06:32:34;4.82;;;1.13;;
19605;SDS011;9950;50.168;8.210;2023-01-09T06:35:03;1.73;;;0.93;;
19605;SDS011;9950;50.168;8.210;2023-01-09T06:37:35;4.03;;;1.17;;
19605;SDS011;9950;50.168;8.210;2023-01-09T06:40:03;2.22;;;1.13;;
19605;SDS011;9950;50.168;8.210;2023-01-09T06:42:32;6.75;;;2.15;;
19605;SDS011;9950;50.168;8.210;2023-01-09T06:45:02;2.53;;;1.00;;
19605;SDS011;9950;50.168;8.210;2023-01-09T06:47:29;3.47;;;0.95;;
19605;SDS011;9950;50.168;8.210;2023-01-09T06:49:58;1.55;;;0.95;;
19605;SDS011;9950;50.168;8.210;2023-01-09T06:52:26;3.47;;;1.45;;
19605;SDS011;9950;50.168;8.210;2023-01-09T06:54:53;2.90;;;0.98;;
19605;SDS011;9950;50.168;8.210;2023-01-09T06:57:22;1.50;;;0.98;;
19605;SDS011;9950;50.168;8.210;2023-01-09T06:59:53;4.75;;;1.10;;
19605;SDS011;9950;50.168;8.210;2023-01-09T07:02:22;1.67;;;0.90;;
19605;SDS011;9950;50.168;8.210;2023-01-09T07:04:50;3.33;;;0.98;;
19605;SDS011;9950;50.168;8.210;2023-01-09T07:07:17;3.17;;;1.00;;
19605;SDS011;9950;50.168;8.210;2023-01-09T07:09:46;3.47;;;1.10;;
19605;SDS011;9950;50.168;8.210;2023-01-09T07:12:13;2.35;;;0.70;;
19605;SDS011;9950;50.168;8.210;2023-01-09T07:14:42;2.42;;;1.00;;
19605;SDS011;9950;50.168;8.210;2023-01-09T07:17:10;1.63;;;1.08;;
19605;SDS011;9950;50.168;8.210;2023-01-09T07:19:39;1.20;;;1.00;;
19605;SDS011;9950;50.168;8.210;2023-01-09T07:22:06;2.80;;;1.08;;
19605;SDS011;9950;50.168;8.210;2023-01-09T07:24:34;3.50;;;1.05;;
19605;SDS011;9950;50.168;8.210;2023-01-09T07:27:01;1.50;;;0.93;;
19605;SDS011;9950;50.168;8.210;2023-01-09T07:29:31;2.53;;;1.00;;
19605;SDS011;9950;50.168;8.210;2023-01-09T07:31:59;1.67;;;1.00;;
19605;SDS011;9950;50.168;8.210;2023-01-09T07:34:30;5.95;;;1.10;;
19605;SDS011;9950;50.168;8.210;2023-01-09T07:37:01;6.72;;;0.95;;
19605;SDS011;9950;50.168;8.210;2023-01-09T07:39:28;2.63;;;0.90;;
19605;SDS011;9950;50.168;8.210;2023-01-09T07:41:55;1.48;;;0.82;;
19605;SDS011;9950;50.168;8.210;2023-01-09T07:44:23;1.98;;;0.70;;
19605;SDS011;9950;50.168;8.210;2023-01-09T07:46:52;1.95;;;0.73;;
19605;SDS011;9950;50.168;8.210;2023-01-09T07:49:24;1.98;;;0.90;;
19605;SDS011;9950;50.168;8.210;2023-01-09T07:51:52;3.55;;;1.45;;
19605;SDS011;9950;50.168;8.210;2023-01-09T07:54:29;3.17;;;1.08;;
19605;SDS011;9950;50.168;8.210;2023-01-09T07:57:07;4.97;;;1.08;;
19605;SDS011;9950;50.168;8.210;2023-01-09T07:59:43;1.95;;;1.00;;
19605;SDS011;9950;50.168;8.210;2023-01-09T08:02:16;1.48;;;0.77;;
19605;SDS011;9950;50.168;8.210;2023-01-09T08:04:50;3.90;;;0.95;;
19605;SDS011;9950;50.168;8.210;2023-01-09T08:07:23;1.67;;;0.70;;
19605;SDS011;9950;50.168;8.210;2023-01-09T08:09:57;1.33;;;0.60;;
19605;SDS011;9950;50.168;8.210;2023-01-09T08:12:24;2.10;;;0.70;;
19605;SDS011;9950;50.168;8.210;2023-01-09T08:14:52;2.35;;;0.98;;
19605;SDS011;9950;50.168;8.210;2023-01-09T08:17:22;1.67;;;1.23;;
19605;SDS011;9950;50.168;8.210;2023-01-09T08:19:51;4.00;;;0.70;;
19605;SDS011;9950;50.168;8.210;2023-01-09T08:22:19;0.85;;;0.70;;
19605;SDS011;9950;50.168;8.210;2023-01-09T08:24:46;1.38;;;0.75;;
19605;SDS011;9950;50.168;8.210;2023-01-09T08:27:14;2.08;;;1.00;;
19605;SDS011;9950;50.168;8.210;2023-01-09T08:29:42;4.20;;;0.98;;
19605;SDS011;9950;50.168;8.210;2023-01-09T08:32:11;1.90;;;1.00;;
19605;SDS011;9950;50.168;8.210;2023-01-09T08:34:39;1.45;;;0.98;;
19605;SDS011;9950;50.168;8.210;2023-01-09T08:37:07;1.63;;;1.10;;
19605;SDS011;9950;50.168;8.210;2023-01-09T08:39:35;1.88;;;1.25;;
19605;SDS011;9950;50.168;8.210;2023-01-09T08:42:02;1.77;;;1.30;;
19605;SDS011;9950;50.168;8.210;2023-01-09T08:44:48;1.77;;;1.38;;
19605;SDS011;9950;50.168;8.210;2023-01-09T08:47:33;1.42;;;1.10;;
19605;SDS011;9950;50.168;8.210;2023-01-09T08:50:00;2.88;;;1.38;;
19605;SDS011;9950;50.168;8.210;2023-01-09T08:52:28;2.30;;;1.38;;
19605;SDS011;9950;50.168;8.210;2023-01-09T08:54:55;2.85;;;1.10;;
19605;SDS011;9950;50.168;8.210;2023-01-09T08:57:22;2.22;;;1.27;;
19605;SDS011;9950;50.168;8.210;2023-01-09T08:59:51;2.17;;;1.10;;
19605;SDS011;9950;50.168;8.210;2023-01-09T09:02:18;1.65;;;1.05;;
19605;SDS011;9950;50.168;8.210;2023-01-09T09:04:46;1.55;;;1.08;;
19605;SDS011;9950;50.168;8.210;2023-01-09T09:07:16;1.27;;;0.95;;
19605;SDS011;9950;50.168;8.210;2023-01-09T09:09:50;1.90;;;1.13;;
19605;SDS011;9950;50.168;8.210;2023-01-09T09:12:17;4.30;;;1.10;;
19605;SDS011;9950;50.168;8.210;2023-01-09T09:14:44;1.90;;;1.20;;
19605;SDS011;9950;50.168;8.210;2023-01-09T09:17:31;2.17;;;1.30;;
19605;SDS011;9950;50.168;8.210;2023-01-09T09:19:58;1.83;;;1.52;;
19605;SDS011;9950;50.168;8.210;2023-01-09T09:22:25;3.88;;;1.23;;
19605;SDS011;9950;50.168;8.210;2023-01-09T09:24:53;1.92;;;1.10;;
19605;SDS011;9950;50.168;8.210;2023-01-09T09:27:20;1.75;;;1.27;;
19605;SDS011;9950;50.168;8.210;2023-01-09T09:29:47;3.50;;;1.55;;
19605;SDS011;9950;50.168;8.210;2023-01-09T09:32:14;3.80;;;1.45;;
19605;SDS011;9950;50.168;8.210;2023-01-09T09:34:43;1.85;;;1.33;;
19605;SDS011;9950;50.168;8.210;2023-01-09T09:37:10;2.30;;;1.05;;
19605;SDS011;9950;50.168;8.210;2023-01-09T09:39:37;3.15;;;1.45;;
19605;SDS011;9950;50.168;8.210;2023-01-09T09:42:11;2.42;;;1.30;;
19605;SDS011;9950;50.168;8.210;2023-01-09T09:45:04;1.50;;;1.10;;
19605;SDS011;9950;50.168;8.210;2023-01-09T09:47:35;2.15;;;1.00;;
19605;SDS011;9950;50.168;8.210;2023-01-09T09:50:12;1.27;;;1.08;;
19605;SDS011;9950;50.168;8.210;2023-01-09T09:52:44;1.58;;;0.90;;
19605;SDS011;9950;50.168;8.210;2023-01-09T09:55:16;2.10;;;1.25;;
19605;SDS011;9950;50.168;8.210;2023-01-09T09:57:44;2.40;;;1.27;;
19605;SDS011;9950;50.168;8.210;2023-01-09T10:00:14;3.58;;;1.25;;
19605;SDS011;9950;50.168;8.210;2023-01-09T10:02:43;3.53;;;1.25;;
19605;SDS011;9950;50.168;8.210;2023-01-09T10:05:14;2.42;;;1.85;;
19605;SDS011;9950;50.168;8.210;2023-01-09T10:07:44;5.78;;;1.30;;
19605;SDS011;9950;50.168;8.210;2023-01-09T10:10:14;3.60;;;1.15;;
19605;SDS011;9950;50.168;8.210;2023-01-09T10:12:45;1.45;;;1.25;;
19605;SDS011;9950;50.168;8.210;2023-01-09T10:15:17;2.20;;;1.15;;
19605;SDS011;9950;50.168;8.210;2023-01-09T10:17:48;2.58;;;1.00;;
19605;SDS011;9950;50.168;8.210;2023-01-09T10:23:02;3.53;;;1.08;;
19605;SDS011;9950;50.168;8.210;2023-01-09T10:25:33;3.03;;;1.27;;
19605;SDS011;9950;50.168;8.210;2023-01-09T10:28:11;1.00;;;0.90;;
19605;SDS011;9950;50.168;8.210;2023-01-09T10:30:42;2.88;;;1.20;;
19605;SDS011;9950;50.168;8.210;2023-01-09T10:33:19;2.97;;;1.35;;
19605;SDS011;9950;50.168;8.210;2023-01-09T10:38:35;1.77;;;1.00;;
19605;SDS011;9950;50.168;8.210;2023-01-09T10:41:04;4.45;;;1.30;;
19605;SDS011;9950;50.168;8.210;2023-01-09T10:43:33;3.45;;;1.40;;
19605;SDS011;9950;50.168;8.210;2023-01-09T10:46:06;1.75;;;1.13;;
19605;SDS011;9950;50.168;8.210;2023-01-09T10:48:36;1.50;;;0.98;;
19605;SDS011;9950;50.168;8.210;2023-01-09T10:51:04;3.42;;;1.40;;
19605;SDS011;9950;50.168;8.210;2023-01-09T10:53:40;3.13;;;1.00;;
19605;SDS011;9950;50.168;8.210;2023-01-09T10:56:10;1.90;;;1.08;;
19605;SDS011;9950;50.168;8.210;2023-01-09T10:58:39;2.78;;;1.40;;
19605;SDS011;9950;50.168;8.210;2023-01-09T11:01:07;3.22;;;1.00;;
19605;SDS011;9950;50.168;8.210;2023-01-09T11:03:35;1.83;;;0.90;;
19605;SDS011;9950;50.168;8.210;2023-01-09T11:06:03;1.10;;;1.00;;
19605;SDS011;9950;50.168;8.210;2023-01-09T11:08:35;5.50;;;1.15;;
19605;SDS011;9950;50.168;8.210;2023-01-09T11:11:07;4.32;;;0.90;;
19605;SDS011;9950;50.168;8.210;2023-01-09T11:13:37;2.90;;;1.13;;
19605;SDS011;9950;50.168;8.210;2023-01-09T11:16:13;2.85;;;1.05;;
19605;SDS011;9950;50.168;8.210;2023-01-09T11:18:47;1.35;;;1.10;;
19605;SDS011;9950;50.168;8.210;2023-01-09T11:23:57;2.38;;;1.10;;
19605;SDS011;9950;50.168;8.210;2023-01-09T11:26:44;3.83;;;1.50;;
19605;SDS011;9950;50.168;8.210;2023-01-09T11:29:11;2.53;;;1.17;;
19605;SDS011;9950;50.168;8.210;2023-01-09T11:31:39;2.55;;;1.05;;
19605;SDS011;9950;50.168;8.210;2023-01-09T11:34:12;3.53;;;1.63;;
19605;SDS011;9950;50.168;8.210;2023-01-09T11:36:41;2.80;;;0.93;;
19605;SDS011;9950;50.168;8.210;2023-01-09T11:39:13;3.00;;;0.90;;
19605;SDS011;9950;50.168;8.210;2023-01-09T11:41:45;0.95;;;0.70;;
19605;SDS011;9950;50.168;8.210;2023-01-09T11:44:12;3.22;;;1.10;;
19605;SDS011;9950;50.168;8.210;2023-01-09T11:46:41;1.38;;;0.90;;
19605;SDS011;9950;50.168;8.210;2023-01-09T11:49:19;1.00;;;0.82;;
19605;SDS011;9950;50.168;8.210;2023-01-09T11:51:47;2.00;;;0.95;;
19605;SDS011;9950;50.168;8.210;2023-01-09T11:54:29;2.03;;;1.00;;
19605;SDS011;9950;50.168;8.210;2023-01-09T11:56:59;2.42;;;0.80;;
19605;SDS011;9950;50.168;8.210;2023-01-09T11:59:26;2.03;;;0.90;;
19605;SDS011;9950;50.168;8.210;2023-01-09T12:04:49;2.72;;;0.80;;
19605;SDS011;9950;50.168;8.210;2023-01-09T12:10:02;2.33;;;1.33;;
19605;SDS011;9950;50.168;8.210;2023-01-09T12:12:34;3.13;;;0.80;;
19605;SDS011;9950;50.168;8.210;2023-01-09T12:15:07;3.63;;;1.02;;
19605;SDS011;9950;50.168;8.210;2023-01-09T12:17:46;1.17;;;0.80;;
19605;SDS011;9950;50.168;8.210;2023-01-09T12:20:21;1.33;;;0.77;;
19605;SDS011;9950;50.168;8.210;2023-01-09T12:22:53;1.30;;;0.88;;
19605;SDS011;9950;50.168;8.210;2023-01-09T12:25:28;0.93;;;0.65;;
19605;SDS011;9950;50.168;8.210;2023-01-09T12:28:09;2.05;;;0.90;;
19605;SDS011;9950;50.168;8.210;2023-01-09T12:30:46;1.55;;;0.70;;
19605;SDS011;9950;50.168;8.210;2023-01-09T12:33:19;1.27;;;0.70;;
19605;SDS011;9950;50.168;8.210;2023-01-09T12:36:02;2.08;;;0.85;;
19605;SDS011;9950;50.168;8.210;2023-01-09T12:38:39;2.55;;;0.70;;
19605;SDS011;9950;50.168;8.210;2023-01-09T12:41:16;2.08;;;0.70;;
19605;SDS011;9950;50.168;8.210;2023-01-09T12:43:51;1.52;;;0.77;;
19605;SDS011;9950;50.168;8.210;2023-01-09T12:46:22;2.17;;;0.80;;
19605;SDS011;9950;50.168;8.210;2023-01-09T12:51:32;1.30;;;0.60;;
19605;SDS011;9950;50.168;8.210;2023-01-09T12:54:04;2.03;;;0.60;;
19605;SDS011;9950;50.168;8.210;2023-01-09T12:56:35;1.85;;;0.60;;
19605;SDS011;9950;50.168;8.210;2023-01-09T12:59:09;1.70;;;0.73;;
19605;SDS011;9950;50.168;8.210;2023-01-09T13:01:40;1.48;;;0.70;;
19605;SDS011;9950;50.168;8.210;2023-01-09T13:04:10;1.30;;;0.63;;
19605;SDS011;9950;50.168;8.210;2023-01-09T13:06:39;2.33;;;0.70;;
19605;SDS011;9950;50.168;8.210;2023-01-09T13:09:12;1.20;;;0.60;;
19605;SDS011;9950;50.168;8.210;2023-01-09T13:11:42;0.57;;;0.50;;
19605;SDS011;9950;50.168;8.210;2023-01-09T13:14:13;1.17;;;0.60;;
19605;SDS011;9950;50.168;8.210;2023-01-09T13:16:44;1.10;;;0.65;;
19605;SDS011;9950;50.168;8.210;2023-01-09T13:19:13;0.98;;;0.40;;
19605;SDS011;9950;50.168;8.210;2023-01-09T13:21:42;1.60;;;0.47;;
19605;SDS011;9950;50.168;8.210;2023-01-09T13:24:12;1.58;;;0.50;;
19605;SDS011;9950;50.168;8.210;2023-01-09T13:26:41;1.83;;;0.70;;
19605;SDS011;9950;50.168;8.210;2023-01-09T13:29:11;2.00;;;0.70;;
19605;SDS011;9950;50.168;8.210;2023-01-09T13:31:49;2.38;;;0.63;;
19605;SDS011;9950;50.168;8.210;2023-01-09T13:34:23;0.50;;;0.50;;
19605;SDS011;9950;50.168;8.210;2023-01-09T13:36:52;0.63;;;0.40;;
19605;SDS011;9950;50.168;8.210;2023-01-09T13:39:20;1.10;;;0.65;;
19605;SDS011;9950;50.168;8.210;2023-01-09T13:41:50;1.27;;;0.52;;
19605;SDS011;9950;50.168;8.210;2023-01-09T13:44:36;1.05;;;0.68;;
19605;SDS011;9950;50.168;8.210;2023-01-09T13:47:08;1.15;;;0.60;;
19605;SDS011;9950;50.168;8.210;2023-01-09T13:49:57;1.35;;;0.50;;
19605;SDS011;9950;50.168;8.210;2023-01-09T13:52:29;1.42;;;0.65;;
19605;SDS011;9950;50.168;8.210;2023-01-09T13:55:00;0.43;;;0.43;;
19605;SDS011;9950;50.168;8.210;2023-01-09T13:57:28;1.48;;;0.68;;
19605;SDS011;9950;50.168;8.210;2023-01-09T13:59:57;3.40;;;0.80;;
19605;SDS011;9950;50.168;8.210;2023-01-09T14:05:12;2.03;;;0.77;;
19605;SDS011;9950;50.168;8.210;2023-01-09T14:07:40;1.42;;;0.70;;
19605;SDS011;9950;50.168;8.210;2023-01-09T14:10:20;0.82;;;0.57;;
19605;SDS011;9950;50.168;8.210;2023-01-09T14:12:48;0.55;;;0.50;;
19605;SDS011;9950;50.168;8.210;2023-01-09T14:15:22;0.68;;;0.60;;
19605;SDS011;9950;50.168;8.210;2023-01-09T14:17:56;1.02;;;0.60;;
19605;SDS011;9950;50.168;8.210;2023-01-09T14:20:26;0.75;;;0.55;;
19605;SDS011;9950;50.168;8.210;2023-01-09T14:22:54;2.28;;;0.70;;
19605;SDS011;9950;50.168;8.210;2023-01-09T14:25:23;1.95;;;0.68;;
19605;SDS011;9950;50.168;8.210;2023-01-09T14:28:04;1.50;;;0.80;;
19605;SDS011;9950;50.168;8.210;2023-01-09T14:30:35;1.33;;;0.50;;
19605;SDS011;9950;50.168;8.210;2023-01-09T14:33:03;1.23;;;0.50;;
19605;SDS011;9950;50.168;8.210;2023-01-09T14:35:37;2.20;;;0.68;;
19605;SDS011;9950;50.168;8.210;2023-01-09T14:38:19;2.05;;;0.80;;
19605;SDS011;9950;50.168;8.210;2023-01-09T14:40:51;2.58;;;0.77;;
19605;SDS011;9950;50.168;8.210;2023-01-09T14:43:30;2.03;;;0.57;;
19605;SDS011;9950;50.168;8.210;2023-01-09T14:46:02;1.77;;;0.70;;
19605;SDS011;9950;50.168;8.210;2023-01-09T14:48:30;1.15;;;0.73;;
19605;SDS011;9950;50.168;8.210;2023-01-09T14:50:59;2.72;;;1.00;;
19605;SDS011;9950;50.168;8.210;2023-01-09T14:53:32;1.35;;;0.63;;
19605;SDS011;9950;50.168;8.210;2023-01-09T14:56:03;1.30;;;0.57;;
19605;SDS011;9950;50.168;8.210;2023-01-09T14:58:32;1.67;;;0.55;;
19605;SDS011;9950;50.168;8.210;2023-01-09T15:01:00;2.53;;;0.60;;
19605;SDS011;9950;50.168;8.210;2023-01-09T15:03:30;2.10;;;0.60;;
19605;SDS011;9950;50.168;8.210;2023-01-09T15:05:59;2.33;;;0.60;;
19605;SDS011;9950;50.168;8.210;2023-01-09T15:08:27;2.92;;;0.88;;
19605;SDS011;9950;50.168;8.210;2023-01-09T15:10:54;3.38;;;0.77;;
19605;SDS011;9950;50.168;8.210;2023-01-09T15:13:26;4.10;;;0.95;;
19605;SDS011;9950;50.168;8.210;2023-01-09T15:15:54;4.05;;;0.70;;
19605;SDS011;9950;50.168;8.210;2023-01-09T15:18:22;1.10;;;0.98;;
19605;SDS011;9950;50.168;8.210;2023-01-09T15:20:50;1.63;;;0.77;;
19605;SDS011;9950;50.168;8.210;2023-01-09T15:23:21;2.25;;;0.80;;
19605;SDS011;9950;50.168;8.210;2023-01-09T15:25:48;1.83;;;0.98;;
19605;SDS011;9950;50.168;8.210;2023-01-09T15:28:21;6.13;;;1.33;;
19605;SDS011;9950;50.168;8.210;2023-01-09T15:30:52;1.50;;;0.90;;
19605;SDS011;9950;50.168;8.210;2023-01-09T15:33:20;7.45;;;1.30;;
19605;SDS011;9950;50.168;8.210;2023-01-09T15:35:48;4.80;;;0.93;;
19605;SDS011;9950;50.168;8.210;2023-01-09T15:38:16;4.50;;;1.40;;
19605;SDS011;9950;50.168;8.210;2023-01-09T15:40:51;2.33;;;1.00;;